Time;durP1;ratioP1;P1;durP2;ratioP2;P2;SDS_P1;SDS_P2;PMS_P1;PMS_P2;Temp;Humidity;BMP_temperature;BMP_pressure;BME280_temperature;BME280_humidity;BME280_pressure;Samples;Min_cycle;Max_cycle;Signal;HPM_P1;HPM_P2
2022/06/16 00:01:41;;;;;;;;;;;24.10;99.90;;;;;;5010589;28;19914;-71
2022/06/16 00:04:06;;;;;;;;;;;24.10;99.90;;;;;;5014631;28;19949;-71
2022/06/16 00:06:32;;;;;;;;;;;23.90;99.90;;;;;;5014519;28;19921;-71
2022/06/16 00:08:57;;;;;;;;;;;24.00;99.90;;;;;;5014587;28;19956;-71
2022/06/16 00:11:23;;;;;;;;;;;23.90;99.90;;;;;;5013177;28;20187;-70
2022/06/16 00:13:50;;;;;;;;;;;23.80;99.90;;;;;;5014544;28;19984;-70
2022/06/16 00:16:15;;;;;;;;;;;23.80;99.90;;;;;;5014471;28;19971;-70
2022/06/16 00:18:41;;;;;;;;;;;23.80;99.90;;;;;;5014850;28;19909;-71
2022/06/16 00:21:07;;;;;;;;;;;23.80;99.90;;;;;;5014511;28;20394;-71
2022/06/16 00:23:32;;;;;;;;;;;23.70;99.90;;;;;;5013509;28;19913;-71
2022/06/16 00:25:58;;;;;;;;;;;23.60;99.90;;;;;;5013786;28;19911;-71
2022/06/16 00:28:24;;;;;;;;;;;23.60;99.90;;;;;;5014566;28;19913;-70
2022/06/16 00:30:49;;;;;;;;;;;23.60;99.90;;;;;;5014096;28;19926;-70
2022/06/16 00:33:15;;;;;;;;;;;23.60;99.90;;;;;;5013059;28;19909;-71
2022/06/16 00:35:41;;;;;;;;;;;23.60;99.90;;;;;;5014470;28;20445;-71
2022/06/16 00:38:06;;;;;;;;;;;23.60;99.90;;;;;;5013384;28;19905;-70
2022/06/16 00:40:32;;;;;;;;;;;23.60;99.90;;;;;;5013963;28;19999;-71
2022/06/16 00:42:58;;;;;;;;;;;23.60;99.90;;;;;;5013745;28;19980;-71
2022/06/16 00:45:42;;;;;;;;;;;23.60;99.90;;;;;;5013788;28;19909;-70
2022/06/16 00:48:09;;;;;;;;;;;23.70;99.90;;;;;;5000342;28;20386;-70
2022/06/16 00:50:35;;;;;;;;;;;23.70;99.90;;;;;;5014009;28;19905;-70
2022/06/16 00:53:01;;;;;;;;;;;23.60;99.90;;;;;;5012948;28;19912;-71
2022/06/16 00:55:27;;;;;;;;;;;23.70;99.90;;;;;;5008016;28;19915;-71
2022/06/16 00:57:53;;;;;;;;;;;23.60;99.90;;;;;;5013804;28;19913;-71
2022/06/16 01:03:04;;;;;;;;;;;23.50;99.90;;;;;;5000460;28;20052;-71
2022/06/16 01:05:29;;;;;;;;;;;23.60;99.90;;;;;;5012307;28;20008;-71
2022/06/16 01:07:56;;;;;;;;;;;23.60;99.90;;;;;;5013752;28;20058;-71
2022/06/16 01:10:22;;;;;;;;;;;23.50;99.90;;;;;;5013436;28;19959;-71
2022/06/16 01:15:43;;;;;;;;;;;23.60;99.90;;;;;;5013350;28;19952;-71
2022/06/16 01:18:08;;;;;;;;;;;23.50;99.90;;;;;;5013481;28;20298;-71
2022/06/16 01:20:37;;;;;;;;;;;23.50;99.90;;;;;;5013082;28;19913;-71
2022/06/16 01:23:21;;;;;;;;;;;23.40;99.90;;;;;;5009775;28;20306;-71
2022/06/16 01:26:07;;;;;;;;;;;23.50;99.90;;;;;;5015160;28;19917;-71
2022/06/16 01:28:44;;;;;;;;;;;23.40;99.90;;;;;;5013077;28;19972;-72
2022/06/16 01:31:16;;;;;;;;;;;23.30;99.90;;;;;;5013746;28;19915;-71
2022/06/16 01:34:02;;;;;;;;;;;23.20;99.90;;;;;;5013514;28;19912;-71
2022/06/16 01:36:40;;;;;;;;;;;23.20;99.90;;;;;;5012818;28;19917;-71
2022/06/16 01:39:21;;;;;;;;;;;23.00;99.90;;;;;;5013373;28;19905;-71
2022/06/16 01:41:53;;;;;;;;;;;23.00;99.90;;;;;;5013069;28;20370;-71
2022/06/16 01:44:23;;;;;;;;;;;23.10;99.90;;;;;;5008601;28;20036;-71
2022/06/16 01:46:52;;;;;;;;;;;23.10;99.90;;;;;;5013204;28;19964;-71
2022/06/16 01:49:44;;;;;;;;;;;22.90;99.90;;;;;;5012816;28;20381;-71
2022/06/16 01:52:17;;;;;;;;;;;22.90;99.90;;;;;;5010919;28;19956;-71
2022/06/16 01:54:49;;;;;;;;;;;23.00;99.90;;;;;;5013068;28;19948;-71
2022/06/16 01:57:18;;;;;;;;;;;23.00;99.90;;;;;;5013508;28;19941;-71
2022/06/16 01:59:44;;;;;;;;;;;23.10;99.90;;;;;;5012755;28;19913;-71
2022/06/16 02:02:13;;;;;;;;;;;23.10;99.90;;;;;;5012302;28;19963;-71
2022/06/16 02:04:58;;;;;;;;;;;23.00;99.90;;;;;;5012523;28;19905;-71
2022/06/16 02:07:29;;;;;;;;;;;23.00;99.90;;;;;;5012328;28;20379;-71
2022/06/16 02:09:57;;;;;;;;;;;23.00;99.90;;;;;;5012943;28;20385;-71
2022/06/16 02:15:13;;;;;;;;;;;23.00;99.90;;;;;;5000505;28;19912;-71
2022/06/16 02:17:39;;;;;;;;;;;22.90;99.90;;;;;;5012931;28;19913;-71
2022/06/16 02:20:05;;;;;;;;;;;22.90;99.90;;;;;;5011747;28;19963;-71
2022/06/16 02:22:31;;;;;;;;;;;22.90;99.90;;;;;;5012966;28;19909;-71
2022/06/16 02:24:57;;;;;;;;;;;22.90;99.90;;;;;;5012503;28;19949;-71
2022/06/16 02:27:22;;;;;;;;;;;22.90;99.90;;;;;;5012862;28;20420;-71
2022/06/16 02:29:48;;;;;;;;;;;22.90;99.90;;;;;;5012884;28;20275;-71
2022/06/16 02:32:49;;;;;;;;;;;22.90;99.90;;;;;;5011560;28;19905;-71
2022/06/16 02:35:21;;;;;;;;;;;23.00;99.90;;;;;;4959005;28;19911;-71
2022/06/16 02:37:52;;;;;;;;;;;23.00;99.90;;;;;;4956106;28;19997;-71
2022/06/16 02:40:22;;;;;;;;;;;23.00;99.90;;;;;;4955983;28;19914;-71
2022/06/16 02:42:47;;;;;;;;;;;23.00;99.90;;;;;;4955780;28;19910;-71
2022/06/16 02:45:19;;;;;;;;;;;23.00;99.90;;;;;;4954601;28;20001;-71
2022/06/16 02:47:48;;;;;;;;;;;23.00;99.90;;;;;;4952868;28;19919;-72
2022/06/16 02:50:43;;;;;;;;;;;22.90;99.90;;;;;;4958514;28;19907;-71
2022/06/16 02:53:11;;;;;;;;;;;22.90;99.90;;;;;;4934411;29;20356;-71
2022/06/16 02:55:40;;;;;;;;;;;23.00;99.90;;;;;;4933269;29;19966;-71
2022/06/16 02:58:07;;;;;;;;;;;23.00;99.90;;;;;;4932230;29;20376;-71
2022/06/16 03:00:37;;;;;;;;;;;23.00;99.90;;;;;;4933769;29;19970;-71
2022/06/16 03:03:18;;;;;;;;;;;23.00;99.90;;;;;;4933658;29;19910;-71
2022/06/16 03:05:43;;;;;;;;;;;22.90;99.90;;;;;;4933707;29;19910;-71
2022/06/16 03:08:09;;;;;;;;;;;22.80;99.90;;;;;;4937379;28;19914;-71
2022/06/16 03:10:53;;;;;;;;;;;22.80;99.90;;;;;;4972997;28;20451;-71
2022/06/16 03:13:19;;;;;;;;;;;22.80;99.90;;;;;;4972980;28;19910;-72
2022/06/16 03:15:44;;;;;;;;;;;22.80;99.90;;;;;;4972532;28;19949;-71
2022/06/16 03:18:10;;;;;;;;;;;22.90;99.90;;;;;;4973356;28;20441;-71
2022/06/16 03:20:36;;;;;;;;;;;22.80;99.90;;;;;;4973056;28;20481;-71
2022/06/16 03:23:01;;;;;;;;;;;22.80;99.90;;;;;;4971296;28;19933;-71
2022/06/16 03:25:27;;;;;;;;;;;22.80;99.90;;;;;;4972760;28;19912;-71
2022/06/16 03:27:53;;;;;;;;;;;22.70;99.90;;;;;;4973171;28;19918;-71
2022/06/16 03:30:18;;;;;;;;;;;22.50;99.90;;;;;;5007623;28;20266;-71
2022/06/16 03:32:44;;;;;;;;;;;22.50;99.90;;;;;;5015302;28;19944;-71
2022/06/16 03:35:09;;;;;;;;;;;22.40;99.90;;;;;;5014475;28;19905;-72
2022/06/16 03:37:35;;;;;;;;;;;22.40;99.90;;;;;;5015383;28;19952;-71
2022/06/16 03:40:00;;;;;;;;;;;22.30;99.90;;;;;;5015058;28;19915;-71
2022/06/16 03:42:26;;;;;;;;;;;22.30;99.90;;;;;;5015179;28;19909;-72
2022/06/16 03:44:52;;;;;;;;;;;22.40;99.90;;;;;;5014604;28;19916;-71
2022/06/16 03:47:18;;;;;;;;;;;22.50;99.90;;;;;;5014079;28;19913;-71
2022/06/16 03:49:43;;;;;;;;;;;22.50;99.90;;;;;;5014934;28;19917;-71
2022/06/16 03:52:09;;;;;;;;;;;22.60;99.90;;;;;;5014757;28;19910;-71
2022/06/16 03:54:35;;;;;;;;;;;22.60;99.90;;;;;;5015355;28;19968;-71
2022/06/16 03:57:00;;;;;;;;;;;22.50;99.90;;;;;;5014822;28;19909;-71
2022/06/16 03:59:26;;;;;;;;;;;22.40;99.90;;;;;;5013613;28;19909;-71
2022/06/16 04:01:51;;;;;;;;;;;22.50;99.90;;;;;;5027793;28;20271;-71
2022/06/16 04:04:17;;;;;;;;;;;22.50;99.90;;;;;;5014916;28;19906;-71
2022/06/16 04:06:43;;;;;;;;;;;22.30;99.90;;;;;;4996736;28;20401;-71
2022/06/16 04:09:08;;;;;;;;;;;22.20;99.90;;;;;;5014608;28;19916;-71
2022/06/16 04:11:34;;;;;;;;;;;22.20;99.90;;;;;;5014913;28;19910;-71
2022/06/16 04:14:02;;;;;;;;;;;22.20;99.90;;;;;;5013524;28;19916;-71
2022/06/16 04:16:32;;;;;;;;;;;22.20;99.90;;;;;;5014799;28;19909;-71
2022/06/16 04:18:58;;;;;;;;;;;22.00;99.90;;;;;;5014717;28;19917;-71
2022/06/16 04:21:24;;;;;;;;;;;22.00;99.90;;;;;;5013928;28;19917;-71
2022/06/16 04:23:50;;;;;;;;;;;22.00;99.90;;;;;;4999097;28;19960;-71
2022/06/16 04:26:15;;;;;;;;;;;21.90;99.90;;;;;;5013315;28;20012;-71
2022/06/16 04:28:41;;;;;;;;;;;22.00;99.90;;;;;;5013867;28;19919;-71
2022/06/16 04:31:07;;;;;;;;;;;22.00;99.90;;;;;;5014575;28;19960;-71
2022/06/16 04:33:33;;;;;;;;;;;22.00;99.90;;;;;;5014139;28;19920;-71
2022/06/16 04:35:58;;;;;;;;;;;22.00;99.90;;;;;;5014245;28;19932;-72
2022/06/16 04:38:26;;;;;;;;;;;22.00;99.90;;;;;;5013287;28;20382;-72
2022/06/16 04:40:52;;;;;;;;;;;22.00;99.90;;;;;;5013849;28;20286;-71
2022/06/16 04:43:17;;;;;;;;;;;22.10;99.90;;;;;;5013737;28;19909;-72
2022/06/16 04:45:44;;;;;;;;;;;22.20;99.90;;;;;;5013891;28;20427;-72
2022/06/16 04:48:10;;;;;;;;;;;22.20;99.90;;;;;;5014241;28;19996;-71
2022/06/16 04:50:36;;;;;;;;;;;22.20;99.90;;;;;;5013744;28;19909;-71
2022/06/16 04:53:01;;;;;;;;;;;22.30;99.90;;;;;;5012989;28;19913;-71
2022/06/16 04:55:27;;;;;;;;;;;22.20;99.90;;;;;;5013849;28;19909;-71
2022/06/16 04:57:54;;;;;;;;;;;22.30;99.90;;;;;;5013494;28;19913;-71
2022/06/16 05:00:20;;;;;;;;;;;22.30;99.90;;;;;;5014178;28;20401;-72
2022/06/16 05:02:45;;;;;;;;;;;22.30;99.90;;;;;;5014211;28;19909;-71
2022/06/16 05:05:11;;;;;;;;;;;22.30;99.90;;;;;;5012793;28;19905;-71
2022/06/16 05:07:37;;;;;;;;;;;22.40;99.90;;;;;;5013726;28;19964;-71
2022/06/16 05:10:02;;;;;;;;;;;22.50;99.90;;;;;;5013667;28;20422;-71
2022/06/16 05:12:28;;;;;;;;;;;22.60;99.90;;;;;;5013308;28;19909;-71
2022/06/16 05:14:54;;;;;;;;;;;22.50;99.90;;;;;;5013692;28;20392;-71
2022/06/16 05:17:20;;;;;;;;;;;22.50;99.90;;;;;;5013332;28;19928;-72
2022/06/16 05:19:46;;;;;;;;;;;22.60;99.90;;;;;;5007629;28;19916;-71
2022/06/16 05:22:11;;;;;;;;;;;22.50;99.90;;;;;;5013152;28;20047;-71
2022/06/16 05:24:37;;;;;;;;;;;22.50;99.90;;;;;;5013405;28;19909;-72
2022/06/16 05:27:04;;;;;;;;;;;22.40;99.90;;;;;;5012982;28;20309;-72
2022/06/16 05:29:30;;;;;;;;;;;22.40;99.90;;;;;;5012441;28;19916;-71
2022/06/16 05:31:56;;;;;;;;;;;22.40;99.90;;;;;;5012306;28;19905;-71
2022/06/16 05:34:21;;;;;;;;;;;22.50;99.90;;;;;;5013110;28;19909;-72
2022/06/16 05:36:47;;;;;;;;;;;22.50;99.90;;;;;;5013088;28;19910;-72
2022/06/16 05:39:13;;;;;;;;;;;22.50;99.90;;;;;;5013415;28;19918;-72
2022/06/16 05:41:39;;;;;;;;;;;22.60;99.90;;;;;;5013187;28;19948;-72
2022/06/16 05:44:05;;;;;;;;;;;22.60;99.90;;;;;;5012151;28;19906;-72
2022/06/16 05:46:31;;;;;;;;;;;22.50;99.90;;;;;;5014409;28;19917;-72
2022/06/16 05:48:56;;;;;;;;;;;22.60;99.90;;;;;;5012796;28;19909;-73
2022/06/16 05:51:24;;;;;;;;;;;22.70;99.90;;;;;;5013021;28;20418;-78
2022/06/16 05:53:50;;;;;;;;;;;22.80;99.90;;;;;;4997290;28;19916;-72
2022/06/16 05:56:16;;;;;;;;;;;22.90;99.90;;;;;;5012007;28;19984;-72
2022/06/16 05:58:42;;;;;;;;;;;23.00;99.90;;;;;;5012392;28;19955;-73
2022/06/16 06:01:08;;;;;;;;;;;23.10;99.90;;;;;;5012834;28;20426;-72
2022/06/16 06:03:33;;;;;;;;;;;23.20;99.90;;;;;;5012772;28;19913;-71
2022/06/16 06:05:59;;;;;;;;;;;23.20;99.90;;;;;;5012855;28;19932;-71
2022/06/16 06:16:45;;;;;;;;;;;23.30;99.90;;;;;;5017090;28;19952;-73
2022/06/16 06:19:25;;;;;;;;;;;23.30;99.90;;;;;;5016524;28;19953;-71
2022/06/16 06:21:58;;;;;;;;;;;23.40;99.90;;;;;;5013408;28;19928;-71
2022/06/16 06:24:24;;;;;;;;;;;23.40;99.90;;;;;;5015999;28;19917;-71
2022/06/16 06:26:50;;;;;;;;;;;23.50;99.90;;;;;;5016689;28;20372;-71
2022/06/16 06:29:15;;;;;;;;;;;23.60;99.90;;;;;;5013985;28;19909;-71
2022/06/16 06:31:41;;;;;;;;;;;23.70;99.90;;;;;;5008268;28;19993;-70
2022/06/16 06:34:06;;;;;;;;;;;23.70;99.90;;;;;;5010806;28;19910;-70
2022/06/16 06:36:32;;;;;;;;;;;23.80;99.90;;;;;;5012397;28;19913;-70
2022/06/16 06:38:58;;;;;;;;;;;23.80;99.90;;;;;;5014572;28;19913;-71
2022/06/16 06:41:23;;;;;;;;;;;23.80;99.90;;;;;;5015533;28;19906;-70
2022/06/16 06:43:49;;;;;;;;;;;23.90;99.90;;;;;;5016306;28;19905;-70
2022/06/16 06:46:15;;;;;;;;;;;24.00;99.90;;;;;;5015900;28;20289;-70
2022/06/16 06:48:40;;;;;;;;;;;24.10;99.90;;;;;;5015484;28;19920;-70
2022/06/16 06:51:06;;;;;;;;;;;24.10;99.90;;;;;;5016071;28;19909;-70
2022/06/16 06:53:31;;;;;;;;;;;24.20;99.90;;;;;;5014944;28;19906;-70
2022/06/16 06:55:57;;;;;;;;;;;24.20;99.90;;;;;;5015820;28;19916;-70
2022/06/16 06:58:23;;;;;;;;;;;24.20;99.90;;;;;;5015818;28;19921;-70
2022/06/16 07:00:53;;;;;;;;;;;24.30;99.90;;;;;;5015583;28;19909;-70
2022/06/16 07:03:19;;;;;;;;;;;24.30;99.90;;;;;;5017060;28;19933;-70
2022/06/16 07:05:44;;;;;;;;;;;24.40;99.90;;;;;;5016253;28;19909;-70
2022/06/16 07:08:10;;;;;;;;;;;24.50;99.90;;;;;;5014053;28;20376;-70
2022/06/16 07:10:36;;;;;;;;;;;24.50;99.90;;;;;;5014871;28;19909;-71
2022/06/16 07:13:01;;;;;;;;;;;24.60;99.90;;;;;;5008372;28;19910;-71
2022/06/16 07:15:27;;;;;;;;;;;24.60;99.90;;;;;;5007374;28;20349;-71
2022/06/16 07:17:53;;;;;;;;;;;24.70;99.90;;;;;;5001325;28;20382;-71
2022/06/16 07:20:18;;;;;;;;;;;24.70;99.90;;;;;;5007977;28;20388;-71
2022/06/16 07:22:44;;;;;;;;;;;24.70;99.90;;;;;;5009550;28;19909;-71
2022/06/16 07:25:10;;;;;;;;;;;24.70;99.90;;;;;;5007357;28;19956;-71
2022/06/16 07:27:36;;;;;;;;;;;24.80;99.90;;;;;;5008216;28;20302;-70
2022/06/16 07:30:04;;;;;;;;;;;24.90;99.90;;;;;;5008600;28;19917;-71
2022/06/16 07:32:30;;;;;;;;;;;24.90;99.90;;;;;;5009801;28;19914;-71
2022/06/16 07:34:57;;;;;;;;;;;25.00;99.90;;;;;;5006678;28;20390;-71
2022/06/16 07:37:22;;;;;;;;;;;24.90;99.90;;;;;;5005968;28;19919;-73
2022/06/16 07:39:48;;;;;;;;;;;25.00;99.90;;;;;;5009893;28;19945;-72
2022/06/16 07:42:14;;;;;;;;;;;25.10;99.90;;;;;;5010299;28;20374;-70
2022/06/16 07:44:39;;;;;;;;;;;25.10;99.90;;;;;;5012245;28;19909;-71
2022/06/16 07:47:06;;;;;;;;;;;25.10;99.90;;;;;;5012221;28;19925;-71
2022/06/16 07:49:32;;;;;;;;;;;25.20;99.90;;;;;;5009944;28;19921;-71
2022/06/16 07:51:59;;;;;;;;;;;25.20;99.90;;;;;;5011338;28;19955;-71
2022/06/16 07:54:25;;;;;;;;;;;25.20;99.90;;;;;;5011554;28;19952;-71
2022/06/16 07:56:51;;;;;;;;;;;25.30;99.90;;;;;;5008405;28;19909;-71
2022/06/16 07:59:16;;;;;;;;;;;25.40;99.90;;;;;;5012884;28;20393;-71
2022/06/16 08:01:42;;;;;;;;;;;25.40;99.60;;;;;;5014134;28;19941;-71
2022/06/16 08:04:08;;;;;;;;;;;25.40;98.80;;;;;;5014480;28;19910;-71
2022/06/16 08:06:34;;;;;;;;;;;25.40;98.60;;;;;;5014085;28;20333;-71
2022/06/16 08:09:00;;;;;;;;;;;25.50;97.70;;;;;;5014219;28;19918;-71
2022/06/16 08:14:10;;;;;;;;;;;25.60;96.80;;;;;;5011472;28;19916;-71
2022/06/16 08:16:36;;;;;;;;;;;25.70;96.70;;;;;;5008300;28;19917;-71
2022/06/16 08:19:01;;;;;;;;;;;25.70;96.50;;;;;;5013879;28;20310;-71
2022/06/16 08:21:27;;;;;;;;;;;25.80;95.90;;;;;;5012736;28;20302;-72
2022/06/16 08:23:53;;;;;;;;;;;25.90;95.70;;;;;;5014470;28;19963;-71
2022/06/16 08:26:18;;;;;;;;;;;25.90;94.90;;;;;;5012932;28;20000;-71
2022/06/16 08:28:44;;;;;;;;;;;26.00;94.00;;;;;;5010845;28;19910;-71
2022/06/16 08:31:10;;;;;;;;;;;26.20;93.80;;;;;;5015871;28;19913;-71
2022/06/16 08:33:36;;;;;;;;;;;26.20;93.60;;;;;;5013621;28;19912;-71
2022/06/16 08:36:02;;;;;;;;;;;26.20;92.70;;;;;;5013068;28;19913;-71
2022/06/16 08:38:27;;;;;;;;;;;26.20;91.80;;;;;;5012510;28;19918;-71
2022/06/16 08:41:11;;;;;;;;;;;26.30;91.70;;;;;;5012438;28;20393;-71
2022/06/16 08:43:39;;;;;;;;;;;26.30;91.50;;;;;;5013174;28;19910;-71
2022/06/16 08:46:06;;;;;;;;;;;26.30;91.20;;;;;;5013410;28;19909;-72
2022/06/16 08:48:38;;;;;;;;;;;26.50;91.10;;;;;;5014282;28;19939;-71
2022/06/16 08:51:07;;;;;;;;;;;26.60;90.40;;;;;;5010483;28;20349;-71
2022/06/16 08:53:49;;;;;;;;;;;26.60;90.40;;;;;;5009255;28;20422;-72
2022/06/16 08:56:17;;;;;;;;;;;26.60;90.20;;;;;;5009074;28;20076;-71
2022/06/16 08:58:49;;;;;;;;;;;26.70;88.90;;;;;;5010627;28;19917;-71
2022/06/16 09:01:21;;;;;;;;;;;26.80;89.20;;;;;;5016343;28;20212;-71
2022/06/16 09:04:07;;;;;;;;;;;27.00;87.40;;;;;;5012149;28;19932;-71
2022/06/16 09:06:33;;;;;;;;;;;27.00;83.80;;;;;;5013117;28;19924;-71
2022/06/16 09:08:58;;;;;;;;;;;27.10;84.00;;;;;;5012593;28;19921;-72
2022/06/16 09:11:24;;;;;;;;;;;27.20;83.60;;;;;;5011413;28;19909;-72
2022/06/16 09:13:52;;;;;;;;;;;27.30;83.20;;;;;;5014220;28;19948;-71
2022/06/16 09:16:26;;;;;;;;;;;27.30;82.30;;;;;;5012476;28;19913;-72
2022/06/16 09:18:51;;;;;;;;;;;27.50;82.20;;;;;;5012764;28;19913;-71
2022/06/16 09:21:30;;;;;;;;;;;27.50;82.10;;;;;;5027469;28;20338;-71
2022/06/16 09:23:55;;;;;;;;;;;27.50;82.20;;;;;;5009760;28;19990;-72
2022/06/16 09:26:31;;;;;;;;;;;27.70;81.20;;;;;;5011201;28;19940;-71
2022/06/16 09:29:00;;;;;;;;;;;27.70;80.70;;;;;;5012803;28;19914;-72
2022/06/16 09:31:52;;;;;;;;;;;27.80;80.20;;;;;;5014699;28;19909;-72
2022/06/16 09:34:33;;;;;;;;;;;27.90;80.50;;;;;;5009305;28;19909;-72
2022/06/16 09:37:00;;;;;;;;;;;28.00;80.20;;;;;;5011895;28;19909;-72
2022/06/16 09:39:34;;;;;;;;;;;28.10;80.90;;;;;;5012068;28;19909;-72
2022/06/16 09:42:42;;;;;;;;;;;28.10;80.60;;;;;;4997645;28;19955;-72
2022/06/16 09:45:04;;;;;;;;;;;28.20;80.40;;;;;;5009908;28;19970;-72
2022/06/16 09:47:42;;;;;;;;;;;28.10;80.70;;;;;;5011240;28;19917;-72
2022/06/16 09:50:12;;;;;;;;;;;28.10;82.10;;;;;;5011460;28;19921;-71
2022/06/16 09:52:39;;;;;;;;;;;28.10;81.90;;;;;;5011889;28;19917;-71
2022/06/16 09:55:10;;;;;;;;;;;28.40;88.90;;;;;;5010948;28;19916;-72
2022/06/16 09:57:56;;;;;;;;;;;28.50;89.70;;;;;;5012765;28;19909;-72
2022/06/16 10:00:23;;;;;;;;;;;28.50;88.80;;;;;;5011205;28;19924;-72
2022/06/16 10:02:50;;;;;;;;;;;28.60;88.30;;;;;;5011779;28;19909;-72
2022/06/16 10:05:37;;;;;;;;;;;28.70;88.90;;;;;;5010362;28;19998;-72
2022/06/16 10:08:05;;;;;;;;;;;28.90;87.30;;;;;;5010920;28;20286;-72
2022/06/16 10:10:37;;;;;;;;;;;29.00;86.90;;;;;;5011734;28;19932;-72
2022/06/16 10:13:02;;;;;;;;;;;29.00;85.60;;;;;;5011680;28;19916;-72
2022/06/16 10:15:47;;;;;;;;;;;29.10;85.80;;;;;;5012502;28;20007;-73
2022/06/16 10:18:17;;;;;;;;;;;28.90;85.10;;;;;;5011787;28;19909;-72
2022/06/16 10:20:43;;;;;;;;;;;28.80;86.30;;;;;;5012759;28;20117;-72
2022/06/16 10:23:27;;;;;;;;;;;29.10;85.90;;;;;;5010625;28;19913;-73
2022/06/16 10:25:57;;;;;;;;;;;29.20;84.70;;;;;;5010809;28;19963;-73
2022/06/16 10:28:32;;;;;;;;;;;29.40;85.00;;;;;;5008660;28;20024;-74
2022/06/16 10:30:58;;;;;;;;;;;29.60;84.00;;;;;;5007389;28;19909;-74
2022/06/16 10:33:29;;;;;;;;;;;29.40;83.70;;;;;;5011321;28;19909;-71
2022/06/16 10:35:54;;;;;;;;;;;29.40;83.40;;;;;;5002117;28;19913;-72
2022/06/16 10:38:40;;;;;;;;;;;29.50;83.70;;;;;;5000975;28;19917;-73
2022/06/16 10:41:07;;;;;;;;;;;29.60;83.60;;;;;;5008958;28;20533;-73
2022/06/16 10:43:36;;;;;;;;;;;29.60;84.00;;;;;;5012028;28;19939;-72
2022/06/16 10:46:13;;;;;;;;;;;29.80;83.00;;;;;;5012209;28;19924;-73
2022/06/16 10:48:44;;;;;;;;;;;29.70;82.90;;;;;;5012841;28;19956;-71
2022/06/16 10:51:09;;;;;;;;;;;29.80;83.30;;;;;;5012181;28;19917;-74
2022/06/16 10:53:42;;;;;;;;;;;29.90;83.40;;;;;;5011760;28;19916;-71
2022/06/16 10:56:11;;;;;;;;;;;30.00;82.60;;;;;;5012543;28;19905;-72
2022/06/16 10:58:48;;;;;;;;;;;29.80;82.70;;;;;;5015460;28;19917;-72
2022/06/16 11:01:16;;;;;;;;;;;29.90;82.80;;;;;;5013872;28;19921;-72
2022/06/16 11:03:46;;;;;;;;;;;30.10;82.20;;;;;;5015223;28;19988;-71
2022/06/16 11:06:14;;;;;;;;;;;30.10;83.70;;;;;;5013501;28;19910;-72
2022/06/16 11:08:43;;;;;;;;;;;30.10;83.60;;;;;;5014591;28;19917;-71
2022/06/16 11:11:09;;;;;;;;;;;30.20;82.80;;;;;;5013961;28;19913;-72
2022/06/16 11:13:37;;;;;;;;;;;30.30;82.20;;;;;;5015330;28;20290;-72
2022/06/16 11:16:07;;;;;;;;;;;30.20;81.10;;;;;;5008955;28;19910;-72
2022/06/16 11:18:33;;;;;;;;;;;30.20;80.10;;;;;;5013450;28;20425;-71
2022/06/16 11:21:00;;;;;;;;;;;30.20;80.70;;;;;;4999179;28;19917;-72
2022/06/16 11:23:41;;;;;;;;;;;30.20;81.40;;;;;;5013167;28;20376;-72
2022/06/16 11:26:15;;;;;;;;;;;30.20;81.20;;;;;;5012177;28;19905;-72
2022/06/16 11:28:45;;;;;;;;;;;30.20;81.70;;;;;;5014803;28;19963;-72
2022/06/16 11:31:14;;;;;;;;;;;30.60;80.80;;;;;;5014828;28;19909;-72
2022/06/16 11:36:51;;;;;;;;;;;30.90;83.70;;;;;;4985563;28;19973;-72
2022/06/16 11:39:16;;;;;;;;;;;30.90;84.50;;;;;;4976116;28;19909;-74
2022/06/16 11:41:46;;;;;;;;;;;30.80;85.90;;;;;;4974536;28;19910;-73
2022/06/16 11:44:11;;;;;;;;;;;30.80;85.70;;;;;;4975790;28;19906;-74
2022/06/16 11:46:37;;;;;;;;;;;30.90;85.50;;;;;;4977088;28;19910;-76
2022/06/16 11:49:15;;;;;;;;;;;30.90;85.30;;;;;;4977095;28;19949;-73
2022/06/16 11:51:41;;;;;;;;;;;30.90;88.20;;;;;;4976719;28;20302;-72
2022/06/16 11:54:12;;;;;;;;;;;30.80;88.00;;;;;;4972589;28;19910;-73
2022/06/16 11:56:58;;;;;;;;;;;30.90;89.10;;;;;;4970903;28;19925;-72
2022/06/16 11:59:36;;;;;;;;;;;30.90;89.10;;;;;;4964532;28;19910;-72
2022/06/16 12:02:20;;;;;;;;;;;30.80;89.40;;;;;;4968872;28;19914;-72
2022/06/16 12:04:52;;;;;;;;;;;30.80;89.50;;;;;;4967676;28;19910;-72
2022/06/16 12:07:17;;;;;;;;;;;30.80;89.40;;;;;;4983511;28;20389;-73
2022/06/16 12:10:01;;;;;;;;;;;30.80;87.50;;;;;;5008437;28;19918;-73
2022/06/16 12:12:33;;;;;;;;;;;30.70;87.50;;;;;;4994501;28;19956;-72
2022/06/16 12:15:17;;;;;;;;;;;30.60;86.70;;;;;;5001443;28;20485;-72
2022/06/16 12:17:51;;;;;;;;;;;30.60;87.30;;;;;;5008345;28;19909;-72
2022/06/16 12:20:22;;;;;;;;;;;30.50;87.70;;;;;;5009434;28;19914;-72
2022/06/16 12:22:54;;;;;;;;;;;30.50;87.00;;;;;;5006124;28;19917;-72
2022/06/16 12:25:19;;;;;;;;;;;30.50;86.60;;;;;;5005715;28;20366;-73
2022/06/16 12:27:45;;;;;;;;;;;30.50;86.20;;;;;;5005525;28;19928;-72
2022/06/16 12:30:20;;;;;;;;;;;30.60;85.90;;;;;;5006514;28;19914;-72
2022/06/16 12:32:51;;;;;;;;;;;30.70;86.00;;;;;;5007803;28;19917;-72
2022/06/16 12:35:20;;;;;;;;;;;30.60;85.20;;;;;;5009858;28;19999;-73
2022/06/16 12:37:47;;;;;;;;;;;30.70;86.10;;;;;;5006696;28;19909;-73
2022/06/16 12:40:18;;;;;;;;;;;30.70;86.20;;;;;;5006551;28;19920;-72
2022/06/16 12:42:51;;;;;;;;;;;30.60;86.50;;;;;;5005619;28;19920;-72
2022/06/16 12:45:26;;;;;;;;;;;30.60;86.50;;;;;;5006330;28;19995;-72
2022/06/16 12:47:55;;;;;;;;;;;30.50;86.90;;;;;;5005676;28;19976;-72
2022/06/16 12:50:36;;;;;;;;;;;30.60;86.30;;;;;;5008576;28;20004;-72
2022/06/16 12:53:05;;;;;;;;;;;30.50;86.10;;;;;;5008625;28;19968;-72
2022/06/16 12:55:35;;;;;;;;;;;30.30;85.90;;;;;;5005002;28;19910;-72
2022/06/16 12:58:05;;;;;;;;;;;30.40;86.00;;;;;;5005332;28;19910;-73
2022/06/16 13:00:34;;;;;;;;;;;30.40;85.90;;;;;;5006135;28;19909;-72
2022/06/16 13:03:12;;;;;;;;;;;30.50;86.20;;;;;;5006180;28;20404;-73
2022/06/16 13:05:38;;;;;;;;;;;30.50;85.50;;;;;;5008188;28;20345;-72
2022/06/16 13:08:04;;;;;;;;;;;30.60;85.10;;;;;;5007014;28;20339;-72
2022/06/16 13:10:36;;;;;;;;;;;30.60;85.10;;;;;;5006095;28;19948;-72
2022/06/16 13:13:04;;;;;;;;;;;30.60;84.10;;;;;;5004915;28;19940;-72
2022/06/16 13:15:32;;;;;;;;;;;30.70;84.60;;;;;;5008997;28;19920;-72
2022/06/16 13:18:06;;;;;;;;;;;30.80;84.90;;;;;;5009507;28;20012;-72
2022/06/16 13:20:33;;;;;;;;;;;30.80;84.30;;;;;;5011312;28;20379;-72
2022/06/16 13:23:02;;;;;;;;;;;30.60;84.50;;;;;;5009471;28;20314;-72
2022/06/16 13:25:42;;;;;;;;;;;30.80;83.70;;;;;;5010179;28;19905;-72
2022/06/16 13:28:30;;;;;;;;;;;31.00;83.70;;;;;;5008428;28;20306;-72
2022/06/16 13:30:58;;;;;;;;;;;31.10;82.80;;;;;;5005509;28;19917;-72
2022/06/16 13:33:32;;;;;;;;;;;31.20;82.80;;;;;;5006090;28;19921;-73
2022/06/16 13:36:12;;;;;;;;;;;31.10;83.40;;;;;;5006318;28;20382;-72
2022/06/16 13:38:40;;;;;;;;;;;30.90;83.90;;;;;;5009658;28;20118;-72
2022/06/16 13:41:35;;;;;;;;;;;30.80;83.50;;;;;;5005323;28;19972;-72
2022/06/16 13:44:21;;;;;;;;;;;30.80;83.40;;;;;;4995507;28;19913;-72
2022/06/16 13:46:55;;;;;;;;;;;30.80;82.10;;;;;;5006657;28;20003;-73
2022/06/16 13:49:47;;;;;;;;;;;30.90;82.10;;;;;;5006502;28;19959;-72
2022/06/16 13:52:12;;;;;;;;;;;30.90;80.70;;;;;;5015645;28;19914;-72
2022/06/16 13:54:39;;;;;;;;;;;31.00;79.90;;;;;;5006929;28;19917;-73
2022/06/16 13:57:16;;;;;;;;;;;31.00;78.60;;;;;;5006847;28;19917;-71
2022/06/16 13:59:43;;;;;;;;;;;30.90;79.20;;;;;;5005958;28;19923;-74
2022/06/16 14:02:13;;;;;;;;;;;30.90;77.70;;;;;;5005015;28;19917;-73
2022/06/16 14:04:48;;;;;;;;;;;31.00;77.90;;;;;;5003731;28;19935;-73
2022/06/16 14:07:15;;;;;;;;;;;31.00;77.00;;;;;;5003412;28;19917;-73
2022/06/16 14:09:57;;;;;;;;;;;31.10;77.30;;;;;;5004141;28;20000;-73
2022/06/16 14:12:43;;;;;;;;;;;31.20;77.30;;;;;;5002398;28;20446;-72
2022/06/16 14:15:09;;;;;;;;;;;31.20;77.30;;;;;;5007493;28;19967;-72
2022/06/16 14:17:41;;;;;;;;;;;31.20;77.60;;;;;;5008897;28;19905;-73
2022/06/16 14:20:27;;;;;;;;;;;31.40;77.40;;;;;;5021250;28;20287;-72
2022/06/16 14:22:56;;;;;;;;;;;31.30;77.40;;;;;;5001673;28;20438;-73
2022/06/16 14:25:36;;;;;;;;;;;31.50;77.40;;;;;;5002530;28;19916;-73
2022/06/16 14:28:04;;;;;;;;;;;31.60;77.20;;;;;;5001387;28;20440;-73
2022/06/16 14:30:31;;;;;;;;;;;31.70;76.10;;;;;;5002649;28;20378;-74
2022/06/16 14:33:04;;;;;;;;;;;31.80;74.80;;;;;;5010883;28;19909;-72
2022/06/16 14:35:35;;;;;;;;;;;31.80;74.80;;;;;;5006546;28;20393;-73
2022/06/16 14:38:03;;;;;;;;;;;31.80;75.00;;;;;;5017910;28;19913;-73
2022/06/16 14:40:46;;;;;;;;;;;31.80;74.90;;;;;;5001717;28;20370;-72
2022/06/16 14:43:20;;;;;;;;;;;32.10;74.60;;;;;;5010703;28;20018;-73
2022/06/16 14:45:52;;;;;;;;;;;32.00;74.70;;;;;;4998806;28;19913;-73
2022/06/16 14:48:22;;;;;;;;;;;32.10;74.40;;;;;;5007004;28;20025;-72
2022/06/16 14:50:50;;;;;;;;;;;32.10;74.80;;;;;;4991986;28;20037;-73
2022/06/16 14:53:18;;;;;;;;;;;32.30;73.60;;;;;;5006614;28;19909;-74